Time;durP1;ratioP1;P1;durP2;ratioP2;P2;SDS_P1;SDS_P2;PMS_P1;PMS_P2;Temp;Humidity;BMP_temperature;BMP_pressure;BME280_temperature;BME280_humidity;BME280_pressure;Samples;Min_cycle;Max_cycle;Signal;HPM_P1;HPM_P2
2021/09/18 00:01:42;;;;;;;;;22.75;20.25;;;;;;;;4827162;29;45606;-94
2021/09/18 00:04:08;;;;;;;;;22.33;18.00;;;;;;;;4820576;29;47003;-94
2021/09/18 00:06:34;;;;;;;;;20.75;17.00;;;;;;;;4834533;29;45518;-93
2021/09/18 00:08:59;;;;;;;;;19.00;18.00;;;;;;;;4834783;29;45801;-94
2021/09/18 00:11:24;;;;;;;;;23.25;20.00;;;;;;;;4820015;29;45394;-93
2021/09/18 00:13:50;;;;;;;;;18.33;18.00;;;;;;;;4834335;29;45696;-94
2021/09/18 00:16:15;;;;;;;;;20.50;15.75;;;;;;;;4838912;29;45510;-93
2021/09/18 00:18:40;;;;;;;;;19.75;19.25;;;;;;;;4815968;29;45617;-95
2021/09/18 00:21:05;;;;;;;;;15.25;14.25;;;;;;;;4820491;29;46005;-95
2021/09/18 00:23:31;;;;;;;;;18.00;16.33;;;;;;;;4835814;29;45444;-94
2021/09/18 00:25:56;;;;;;;;;23.00;20.67;;;;;;;;4833222;29;45370;-94
2021/09/18 00:28:21;;;;;;;;;23.00;17.75;;;;;;;;4839199;29;45612;-94
2021/09/18 00:30:46;;;;;;;;;17.00;17.00;;;;;;;;4820478;29;45525;-95
2021/09/18 00:33:12;;;;;;;;;20.00;17.75;;;;;;;;4821059;29;47461;-94
2021/09/18 00:35:37;;;;;;;;;20.33;18.33;;;;;;;;4841390;29;45749;-94
2021/09/18 00:38:02;;;;;;;;;19.00;17.00;;;;;;;;4821679;29;45485;-93
2021/09/18 00:40:27;;;;;;;;;22.00;17.00;;;;;;;;4822011;29;45581;-93
2021/09/18 00:42:53;;;;;;;;;20.75;17.50;;;;;;;;4834492;29;46798;-95
2021/09/18 00:45:18;;;;;;;;;23.50;18.50;;;;;;;;4837314;29;45451;-94
2021/09/18 00:47:43;;;;;;;;;21.50;18.00;;;;;;;;4838253;29;45488;-93
2021/09/18 00:50:09;;;;;;;;;19.33;18.33;;;;;;;;4823647;29;45589;-95
2021/09/18 00:52:34;;;;;;;;;16.25;15.75;;;;;;;;4820212;29;47409;-94
2021/09/18 00:55:00;;;;;;;;;19.00;18.00;;;;;;;;4826897;29;45560;-94
2021/09/18 00:57:25;;;;;;;;;18.50;18.50;;;;;;;;4836841;29;45528;-94
2021/09/18 00:59:50;;;;;;;;;23.00;19.75;;;;;;;;4822701;29;45617;-94
2021/09/18 01:02:15;;;;;;;;;19.50;17.75;;;;;;;;4822696;29;47023;-93
2021/09/18 01:04:41;;;;;;;;;24.33;19.67;;;;;;;;4822403;29;45557;-96
2021/09/18 01:07:06;;;;;;;;;19.50;16.50;;;;;;;;4820683;29;45462;-94
2021/09/18 01:09:32;;;;;;;;;24.25;19.50;;;;;;;;4826243;29;45423;-95
2021/09/18 01:11:57;;;;;;;;;21.50;18.75;;;;;;;;4834979;29;46511;-96
2021/09/18 01:14:23;;;;;;;;;20.75;17.00;;;;;;;;4839797;29;45412;-94
2021/09/18 01:16:48;;;;;;;;;21.75;19.00;;;;;;;;4819923;29;45525;-94
2021/09/18 01:19:14;;;;;;;;;26.25;21.50;;;;;;;;4836252;29;45851;-95
2021/09/18 01:21:39;;;;;;;;;16.00;16.00;;;;;;;;4824633;29;48326;-95
2021/09/18 01:24:04;;;;;;;;;24.00;19.25;;;;;;;;4836223;29;45959;-94
2021/09/18 01:26:31;;;;;;;;;20.50;19.25;;;;;;;;4818700;29;45659;-94
2021/09/18 01:28:57;;;;;;;;;22.75;19.25;;;;;;;;4821160;29;45791;-94
2021/09/18 01:31:22;;;;;;;;;20.25;16.50;;;;;;;;4838374;29;45600;-95
2021/09/18 01:33:50;;;;;;;;;19.25;17.75;;;;;;;;4839040;29;45815;-93
2021/09/18 01:36:16;;;;;;;;;15.25;15.25;;;;;;;;4816897;29;46775;-95
2021/09/18 01:38:41;;;;;;;;;17.33;17.33;;;;;;;;4841893;29;45572;-93
2021/09/18 01:41:06;;;;;;;;;18.67;15.33;;;;;;;;4895742;23;48122;-77
2021/09/18 01:43:31;;;;;;;;;15.67;15.67;;;;;;;;4829407;29;45537;-77
2021/09/18 01:45:56;;;;;;;;;18.50;16.75;;;;;;;;4829998;29;45741;-77
2021/09/18 01:48:22;;;;;;;;;17.00;16.33;;;;;;;;4830235;29;45640;-77
2021/09/18 01:50:50;;;;;;;;;21.25;17.50;;;;;;;;4831289;29;45434;-77
2021/09/18 01:53:16;;;;;;;;;16.00;16.00;;;;;;;;4828370;29;45643;-77
2021/09/18 01:55:42;;;;;;;;;16.75;16.75;;;;;;;;4832241;29;45600;-77
2021/09/18 01:58:07;;;;;;;;;19.25;16.00;;;;;;;;4841510;29;45590;-77
2021/09/18 02:00:36;;;;;;;;;21.75;18.00;;;;;;;;4836886;29;45522;-77
2021/09/18 02:03:01;;;;;;;;;18.00;16.75;;;;;;;;4834204;29;45823;-77
2021/09/18 02:05:27;;;;;;;;;18.75;17.75;;;;;;;;4837747;29;46031;-77
2021/09/18 02:07:53;;;;;;;;;20.25;17.25;;;;;;;;4834569;29;46382;-77
2021/09/18 02:10:21;;;;;;;;;20.00;17.25;;;;;;;;4841728;29;46048;-77
2021/09/18 02:12:46;;;;;;;;;16.50;15.25;;;;;;;;4836976;29;46055;-77
2021/09/18 02:15:13;;;;;;;;;17.00;16.00;;;;;;;;4837471;29;46174;-77
2021/09/18 02:17:38;;;;;;;;;18.00;16.00;;;;;;;;4834981;29;45641;-77
2021/09/18 02:20:08;;;;;;;;;20.50;18.00;;;;;;;;4829987;29;46596;-77
2021/09/18 02:22:33;;;;;;;;;17.75;16.50;;;;;;;;4833413;29;45535;-77
2021/09/18 02:24:59;;;;;;;;;21.00;16.50;;;;;;;;4842227;29;45481;-76
2021/09/18 02:27:24;;;;;;;;;17.67;17.00;;;;;;;;4833075;29;45809;-77
2021/09/18 02:29:49;;;;;;;;;17.25;16.00;;;;;;;;4822878;29;48017;-76
2021/09/18 02:32:14;;;;;;;;;17.75;17.75;;;;;;;;4833145;29;45699;-77
2021/09/18 02:34:40;;;;;;;;;17.00;15.25;;;;;;;;4817197;29;46401;-77
2021/09/18 02:37:05;;;;;;;;;22.50;19.25;;;;;;;;4843927;29;45750;-76
2021/09/18 02:39:30;;;;;;;;;23.00;17.25;;;;;;;;4842028;29;46326;-77
2021/09/18 02:41:56;;;;;;;;;20.50;16.25;;;;;;;;4840090;29;45718;-77
2021/09/18 02:44:21;;;;;;;;;15.67;15.00;;;;;;;;4836439;29;45637;-77
2021/09/18 02:46:46;;;;;;;;;20.33;16.33;;;;;;;;4833336;29;47712;-77
2021/09/18 02:49:11;;;;;;;;;18.67;17.67;;;;;;;;4841263;29;46408;-77
2021/09/18 02:51:37;;;;;;;;;20.25;18.00;;;;;;;;4837566;29;46281;-76
2021/09/18 02:54:03;;;;;;;;;21.00;16.75;;;;;;;;4829056;29;45597;-77
2021/09/18 02:56:28;;;;;;;;;21.00;17.75;;;;;;;;4834571;29;45766;-77
2021/09/18 02:58:53;;;;;;;;;20.00;19.75;;;;;;;;4832301;29;45605;-77
2021/09/18 03:01:18;;;;;;;;;17.00;15.25;;;;;;;;4838508;29;45840;-77
2021/09/18 03:03:44;;;;;;;;;19.67;18.00;;;;;;;;4840534;29;45546;-77
2021/09/18 03:06:09;;;;;;;;;19.33;17.33;;;;;;;;4836052;29;45596;-76
2021/09/18 03:08:34;;;;;;;;;20.00;18.00;;;;;;;;4839575;29;45824;-77
2021/09/18 03:11:00;;;;;;;;;17.00;16.75;;;;;;;;4844590;29;45633;-76
2021/09/18 03:13:25;;;;;;;;;16.33;16.00;;;;;;;;4831199;29;45563;-77
2021/09/18 03:15:50;;;;;;;;;15.33;15.33;;;;;;;;4837336;29;46403;-77
2021/09/18 03:18:15;;;;;;;;;17.00;17.00;;;;;;;;4833872;29;46029;-77
2021/09/18 03:20:40;;;;;;;;;16.00;16.00;;;;;;;;4836527;29;45556;-77
2021/09/18 03:23:08;;;;;;;;;16.33;14.33;;;;;;;;4836687;29;45521;-77
2021/09/18 03:25:33;;;;;;;;;20.00;19.50;;;;;;;;4838624;29;45553;-77
2021/09/18 03:28:00;;;;;;;;;17.00;16.00;;;;;;;;4839857;29;45904;-77
2021/09/18 03:30:25;;;;;;;;;22.00;18.25;;;;;;;;4837017;29;46948;-77
2021/09/18 03:32:50;;;;;;;;;18.25;16.75;;;;;;;;4840553;29;45584;-77
2021/09/18 03:35:16;;;;;;;;;16.00;14.00;;;;;;;;4838067;29;45651;-77
2021/09/18 03:37:41;;;;;;;;;14.75;13.25;;;;;;;;4831714;29;46060;-77
2021/09/18 03:40:08;;;;;;;;;18.33;14.33;;;;;;;;4840864;29;45664;-77
2021/09/18 03:42:34;;;;;;;;;15.50;15.25;;;;;;;;4839713;29;45917;-77
2021/09/18 03:44:59;;;;;;;;;15.75;15.25;;;;;;;;4837885;29;46847;-77
2021/09/18 03:47:24;;;;;;;;;17.50;15.00;;;;;;;;4834355;29;45996;-77
2021/09/18 03:49:50;;;;;;;;;18.67;17.33;;;;;;;;4835756;29;45628;-76
2021/09/18 03:52:15;;;;;;;;;15.75;13.50;;;;;;;;4836765;29;45755;-77
2021/09/18 03:54:40;;;;;;;;;16.50;16.00;;;;;;;;4838635;29;45998;-77
2021/09/18 03:57:05;;;;;;;;;14.75;12.25;;;;;;;;4834038;29;45783;-77
2021/09/18 03:59:31;;;;;;;;;17.67;15.00;;;;;;;;4833843;29;46238;-78
2021/09/18 04:01:56;;;;;;;;;16.25;14.25;;;;;;;;4836320;29;47383;-78
2021/09/18 04:04:21;;;;;;;;;15.50;11.50;;;;;;;;4837010;29;45684;-77
2021/09/18 04:06:48;;;;;;;;;8.33;8.33;;;;;;;;4835139;29;46164;-77
2021/09/18 04:09:13;;;;;;;;;15.00;13.25;;;;;;;;4826415;29;45640;-77
2021/09/18 04:11:38;;;;;;;;;14.00;12.25;;;;;;;;4840020;29;47937;-77
2021/09/18 04:14:04;;;;;;;;;13.67;11.00;;;;;;;;4831465;29;45691;-78
2021/09/18 04:16:29;;;;;;;;;14.33;14.33;;;;;;;;4837327;29;46324;-78
2021/09/18 04:18:54;;;;;;;;;14.25;14.00;;;;;;;;4834998;29;45853;-77
2021/09/18 04:21:19;;;;;;;;;16.00;13.00;;;;;;;;4838500;29;46758;-77
2021/09/18 04:23:45;;;;;;;;;14.00;11.00;;;;;;;;4841096;29;45852;-78
2021/09/18 04:26:10;;;;;;;;;14.00;14.00;;;;;;;;4936219;23;45536;-94
2021/09/18 04:28:35;;;;;;;;;7.00;7.00;;;;;;;;3297007;29;46003622;-94
2021/09/18 04:31:01;;;;;;;;;19.67;16.00;;;;;;;;4819661;29;45528;-94
2021/09/18 04:33:26;;;;;;;;;16.25;14.50;;;;;;;;4834576;29;45543;-95
2021/09/18 04:35:51;;;;;;;;;16.33;14.33;;;;;;;;4827812;29;45540;-95
2021/09/18 04:38:17;;;;;;;;;17.33;14.67;;;;;;;;4809693;29;45492;-95
2021/09/18 04:40:43;;;;;;;;;16.25;13.50;;;;;;;;4833620;29;45365;-94
2021/09/18 04:43:08;;;;;;;;;15.75;14.50;;;;;;;;4825917;23;45676;-78
2021/09/18 04:45:33;;;;;;;;;15.33;13.00;;;;;;;;4814178;29;46162;-78
2021/09/18 04:47:59;;;;;;;;;17.25;12.25;;;;;;;;4814591;29;45855;-78
2021/09/18 04:50:24;;;;;;;;;17.00;15.25;;;;;;;;4815880;29;48704;-78
2021/09/18 04:52:49;;;;;;;;;14.00;14.00;;;;;;;;4811265;29;45518;-78
2021/09/18 04:55:14;;;;;;;;;15.00;12.25;;;;;;;;4818164;29;46628;-78
2021/09/18 04:57:40;;;;;;;;;13.50;13.00;;;;;;;;4808876;29;46578;-78
2021/09/18 05:00:06;;;;;;;;;17.67;16.67;;;;;;;;4814675;29;45653;-78
2021/09/18 05:02:31;;;;;;;;;16.50;12.50;;;;;;;;4800351;29;46027;-77
2021/09/18 05:04:56;;;;;;;;;18.75;13.75;;;;;;;;4816563;29;45546;-80
2021/09/18 05:07:22;;;;;;;;;17.00;11.33;;;;;;;;4816332;29;46139;-77
2021/09/18 05:09:47;;;;;;;;;15.50;13.25;;;;;;;;4814579;29;45867;-78
2021/09/18 05:12:12;;;;;;;;;18.50;15.50;;;;;;;;4808917;29;45634;-78
2021/09/18 05:14:37;;;;;;;;;15.00;13.33;;;;;;;;4811148;29;45603;-79
2021/09/18 05:17:03;;;;;;;;;13.67;13.67;;;;;;;;4813244;29;45644;-79
2021/09/18 05:19:28;;;;;;;;;16.67;13.33;;;;;;;;4819488;29;45581;-79
2021/09/18 05:21:53;;;;;;;;;13.75;13.50;;;;;;;;4826403;29;45824;-79
2021/09/18 05:24:18;;;;;;;;;12.25;11.50;;;;;;;;4819156;29;45520;-79
2021/09/18 05:26:44;;;;;;;;;16.00;14.00;;;;;;;;4815499;29;46443;-79
2021/09/18 05:29:09;;;;;;;;;14.00;10.00;;;;;;;;4819171;29;47528;-78
2021/09/18 05:31:34;;;;;;;;;13.67;11.67;;;;;;;;4823330;29;45570;-78
2021/09/18 05:33:59;;;;;;;;;13.50;12.75;;;;;;;;4831500;29;46955;-80
2021/09/18 05:36:25;;;;;;;;;14.00;13.00;;;;;;;;4823386;29;45645;-78
2021/09/18 05:38:50;;;;;;;;;15.50;15.25;;;;;;;;4824252;29;45572;-77
2021/09/18 05:41:15;;;;;;;;;17.75;14.25;;;;;;;;4822379;29;45667;-78
2021/09/18 05:43:40;;;;;;;;;14.67;14.00;;;;;;;;4818596;29;47197;-79
2021/09/18 05:46:05;;;;;;;;;13.00;11.00;;;;;;;;4824229;29;45976;-78
2021/09/18 05:48:31;;;;;;;;;12.50;12.25;;;;;;;;4820878;29;45796;-79
2021/09/18 05:50:56;;;;;;;;;14.00;12.00;;;;;;;;4820822;29;46391;-81
2021/09/18 05:53:21;;;;;;;;;15.00;11.00;;;;;;;;4826742;29;46287;-80
2021/09/18 05:55:46;;;;;;;;;13.00;12.00;;;;;;;;4824442;29;46539;-78
2021/09/18 05:58:12;;;;;;;;;14.00;12.00;;;;;;;;4830180;29;45434;-78
2021/09/18 06:00:37;;;;;;;;;11.67;11.67;;;;;;;;4818252;29;45526;-79
2021/09/18 06:03:02;;;;;;;;;13.00;11.00;;;;;;;;4818469;29;46149;-78
2021/09/18 06:05:27;;;;;;;;;10.75;9.00;;;;;;;;4816206;29;45594;-79
2021/09/18 06:07:53;;;;;;;;;10.67;9.00;;;;;;;;4826793;29;48039;-78
2021/09/18 06:10:18;;;;;;;;;15.00;11.00;;;;;;;;4823349;29;45709;-78
2021/09/18 06:12:43;;;;;;;;;12.50;11.00;;;;;;;;4831289;29;46116;-78
2021/09/18 06:15:09;;;;;;;;;12.00;11.67;;;;;;;;4832364;29;47513;-78
2021/09/18 06:17:34;;;;;;;;;10.25;10.25;;;;;;;;4834991;29;46740;-78
2021/09/18 06:19:59;;;;;;;;;12.75;11.25;;;;;;;;4831572;29;46027;-77
2021/09/18 06:22:24;;;;;;;;;12.67;12.33;;;;;;;;4831562;29;46956;-77
2021/09/18 06:24:50;;;;;;;;;14.75;12.50;;;;;;;;4837085;29;45529;-77
2021/09/18 06:27:15;;;;;;;;;15.00;14.00;;;;;;;;4829466;29;45956;-77
2021/09/18 06:29:40;;;;;;;;;14.75;13.50;;;;;;;;4832750;29;46546;-77
2021/09/18 06:32:08;;;;;;;;;19.67;14.00;;;;;;;;4831548;29;45552;-77
2021/09/18 06:34:37;;;;;;;;;11.50;9.25;;;;;;;;4829510;29;45835;-77
2021/09/18 06:37:02;;;;;;;;;16.50;11.50;;;;;;;;4838130;29;46333;-77
2021/09/18 06:39:28;;;;;;;;;10.25;10.25;;;;;;;;4834069;29;46338;-77
2021/09/18 06:41:53;;;;;;;;;15.25;11.75;;;;;;;;4832928;29;46604;-77
2021/09/18 06:44:18;;;;;;;;;10.33;10.33;;;;;;;;4830988;29;45853;-77
2021/09/18 06:46:43;;;;;;;;;12.33;12.00;;;;;;;;4828557;29;46224;-77
2021/09/18 06:49:09;;;;;;;;;14.00;12.00;;;;;;;;4819619;29;45470;-77
2021/09/18 06:51:34;;;;;;;;;12.33;10.00;;;;;;;;4835913;29;46030;-77
2021/09/18 06:53:59;;;;;;;;;11.25;11.00;;;;;;;;4832994;29;45823;-77
2021/09/18 06:56:24;;;;;;;;;13.25;11.00;;;;;;;;4832123;29;45639;-77
2021/09/18 06:58:51;;;;;;;;;13.33;10.67;;;;;;;;4833409;29;45782;-77
2021/09/18 07:01:16;;;;;;;;;14.00;12.00;;;;;;;;4834254;29;46317;-77
2021/09/18 07:03:41;;;;;;;;;12.50;11.00;;;;;;;;4832538;29;49780;-77
2021/09/18 07:06:06;;;;;;;;;13.00;11.00;;;;;;;;4833178;29;49889;-77
2021/09/18 07:08:32;;;;;;;;;13.00;13.00;;;;;;;;4830654;29;46272;-77
2021/09/18 07:10:57;;;;;;;;;16.33;13.00;;;;;;;;4832387;29;46248;-77
2021/09/18 07:13:22;;;;;;;;;13.00;12.00;;;;;;;;4832860;29;45569;-77
2021/09/18 07:15:48;;;;;;;;;14.00;11.50;;;;;;;;4840565;29;45514;-77
2021/09/18 07:20:48;;;;;;;;;12.75;11.50;;;;;;;;5037534;23;45967;-78
2021/09/18 07:23:13;;;;;;;;;13.25;12.00;;;;;;;;4850904;29;45584;-77
2021/09/18 07:25:38;;;;;;;;;11.75;11.00;;;;;;;;4859689;29;46171;-79
2021/09/18 07:28:04;;;;;;;;;12.25;12.25;;;;;;;;4859589;29;45862;-78
2021/09/18 07:30:30;;;;;;;;;14.00;12.00;;;;;;;;4858851;29;46602;-77
2021/09/18 07:32:56;;;;;;;;;13.25;12.00;;;;;;;;4861472;29;46175;-77
2021/09/18 07:35:21;;;;;;;;;10.75;9.75;;;;;;;;4858192;29;46054;-79
2021/09/18 07:37:46;;;;;;;;;11.00;11.00;;;;;;;;4855408;29;45628;-78
2021/09/18 07:40:12;;;;;;;;;14.25;11.50;;;;;;;;4847926;29;47381;-78
2021/09/18 07:42:37;;;;;;;;;12.75;12.00;;;;;;;;4852368;29;45960;-77
2021/09/18 07:45:04;;;;;;;;;12.33;12.00;;;;;;;;4854228;29;46688;-77
2021/09/18 07:47:29;;;;;;;;;11.50;11.50;;;;;;;;4851078;29;46091;-77
2021/09/18 07:49:54;;;;;;;;;11.00;11.00;;;;;;;;4847569;29;45562;-78
2021/09/18 07:52:19;;;;;;;;;15.67;13.00;;;;;;;;4849653;29;45709;-76
2021/09/18 07:54:45;;;;;;;;;13.25;11.50;;;;;;;;4850548;29;45853;-77
2021/09/18 07:57:10;;;;;;;;;14.75;11.50;;;;;;;;4843253;29;45619;-77
2021/09/18 07:59:35;;;;;;;;;14.00;11.25;;;;;;;;4848097;29;50587;-77
2021/09/18 08:02:01;;;;;;;;;13.00;11.25;;;;;;;;4846377;29;45822;-78
2021/09/18 08:04:27;;;;;;;;;14.00;12.00;;;;;;;;4849460;29;45942;-77
2021/09/18 08:06:53;;;;;;;;;14.00;10.75;;;;;;;;4847669;29;47370;-80
2021/09/18 08:09:18;;;;;;;;;11.00;11.00;;;;;;;;4851694;29;47361;-80
2021/09/18 08:11:43;;;;;;;;;13.00;10.75;;;;;;;;4841881;29;45882;-79
2021/09/18 08:14:08;;;;;;;;;15.25;12.25;;;;;;;;4856692;29;45980;-79
2021/09/18 08:16:34;;;;;;;;;14.00;12.00;;;;;;;;4854955;29;45568;-79
2021/09/18 08:18:59;;;;;;;;;14.00;13.00;;;;;;;;4855758;29;46477;-79
2021/09/18 08:21:24;;;;;;;;;13.00;10.75;;;;;;;;4835718;29;45952;-78
2021/09/18 08:23:49;;;;;;;;;12.00;12.00;;;;;;;;4844108;29;45518;-78
2021/09/18 08:26:15;;;;;;;;;12.33;11.00;;;;;;;;4840005;29;45866;-78
2021/09/18 08:28:40;;;;;;;;;12.00;10.00;;;;;;;;4847141;29;46643;-78
2021/09/18 08:31:05;;;;;;;;;14.00;11.50;;;;;;;;4849873;29;46824;-78
2021/09/18 08:33:31;;;;;;;;;10.75;10.75;;;;;;;;4841801;29;50634;-78
2021/09/18 08:35:56;;;;;;;;;9.25;8.75;;;;;;;;4848948;29;45930;-79
2021/09/18 08:38:24;;;;;;;;;12.00;10.00;;;;;;;;4845647;29;45957;-78
2021/09/18 08:40:50;;;;;;;;;8.75;8.25;;;;;;;;4844837;29;45597;-78
2021/09/18 08:43:16;;;;;;;;;10.00;8.75;;;;;;;;4849145;29;45647;-78
2021/09/18 08:45:41;;;;;;;;;11.75;10.75;;;;;;;;4852143;29;45486;-78
2021/09/18 08:48:07;;;;;;;;;7.33;7.33;;;;;;;;4846499;29;45592;-79
2021/09/18 08:50:33;;;;;;;;;14.50;9.25;;;;;;;;4849459;29;45662;-78
2021/09/18 08:52:58;;;;;;;;;10.75;9.00;;;;;;;;4847581;29;46883;-79
2021/09/18 08:55:23;;;;;;;;;10.00;9.25;;;;;;;;4853654;29;45625;-79
2021/09/18 08:57:49;;;;;;;;;11.25;9.25;;;;;;;;4848323;29;46631;-79
2021/09/18 09:00:30;;;;;;;;;12.00;9.00;;;;;;;;4847081;29;47090;-78
2021/09/18 09:02:56;;;;;;;;;11.75;10.75;;;;;;;;4853673;29;45938;-80
2021/09/18 09:05:25;;;;;;;;;10.25;9.00;;;;;;;;4858009;29;53214;-81
2021/09/18 09:08:03;;;;;;;;;10.75;10.00;;;;;;;;4857970;29;47120;-80
2021/09/18 09:10:29;;;;;;;;;9.75;9.50;;;;;;;;4860679;29;47326;-80
2021/09/18 09:13:03;;;;;;;;;10.00;8.67;;;;;;;;4862664;29;46030;-80
2021/09/18 09:15:28;;;;;;;;;11.00;10.00;;;;;;;;4856871;29;46267;-80
2021/09/18 09:17:53;;;;;;;;;10.75;10.50;;;;;;;;4850030;29;46418;-80
2021/09/18 09:20:23;;;;;;;;;14.75;11.25;;;;;;;;4858043;29;45582;-80
2021/09/18 09:22:50;;;;;;;;;12.00;8.25;;;;;;;;4851928;29;45582;-79
2021/09/18 09:25:34;;;;;;;;;9.50;9.00;;;;;;;;4854222;29;45764;-82
2021/09/18 09:28:21;;;;;;;;;10.50;10.00;;;;;;;;4833695;29;48167;-78
2021/09/18 09:30:46;;;;;;;;;10.50;8.00;;;;;;;;4851731;29;46230;-81
2021/09/18 09:33:12;;;;;;;;;9.00;9.00;;;;;;;;4846645;29;51225;-82
2021/09/18 09:35:37;;;;;;;;;8.25;8.25;;;;;;;;4852941;29;45977;-79
2021/09/18 09:38:03;;;;;;;;;9.00;9.00;;;;;;;;4847808;29;46430;-79
2021/09/18 09:40:35;;;;;;;;;11.00;8.25;;;;;;;;4856312;28;45784;-77
2021/09/18 09:43:00;;;;;;;;;10.50;7.00;;;;;;;;4866329;29;45920;-78
2021/09/18 09:45:25;;;;;;;;;8.75;7.50;;;;;;;;4854452;29;45813;-79
2021/09/18 09:48:02;;;;;;;;;7.00;7.00;;;;;;;;4848590;29;46234;-78
2021/09/18 09:50:27;;;;;;;;;8.00;7.25;;;;;;;;4855819;29;46261;-78
2021/09/18 09:52:54;;;;;;;;;10.50;8.00;;;;;;;;4859096;29;45753;-82
2021/09/18 09:55:19;;;;;;;;;11.00;9.75;;;;;;;;4864455;29;46866;-77
2021/09/18 09:57:46;;;;;;;;;8.00;8.00;;;;;;;;4843337;29;46387;-80
2021/09/18 10:00:13;;;;;;;;;8.75;7.75;;;;;;;;4834182;29;46028;-79
2021/09/18 10:02:39;;;;;;;;;10.75;9.25;;;;;;;;4848084;29;46063;-77
2021/09/18 10:05:05;;;;;;;;;9.25;9.00;;;;;;;;4846603;29;46673;-80
2021/09/18 10:07:30;;;;;;;;;9.00;9.00;;;;;;;;4850728;29;46649;-76
2021/09/18 10:09:56;;;;;;;;;14.25;9.00;;;;;;;;4837175;29;45768;-79
2021/09/18 10:12:22;;;;;;;;;9.50;8.00;;;;;;;;4964753;23;45596;-94
2021/09/18 10:14:51;;;;;;;;;10.75;6.25;;;;;;;;4850223;29;45580;-94
2021/09/18 10:20:15;;;;;;;;;9.25;8.25;;;;;;;;4847462;29;45554;-94
2021/09/18 10:23:19;;;;;;;;;7.50;7.50;;;;;;;;4844853;29;46192;-96
2021/09/18 10:26:12;;;;;;;;;11.25;10.00;;;;;;;;4859201;29;45817;-96
2021/09/18 10:28:48;;;;;;;;;9.00;7.25;;;;;;;;4840805;29;46374;-94
2021/09/18 10:31:24;;;;;;;;;11.00;8.50;;;;;;;;4858396;29;46596;-93
2021/09/18 10:33:51;;;;;;;;;8.75;8.75;;;;;;;;4851328;29;45673;-94
2021/09/18 10:36:21;;;;;;;;;7.75;7.50;;;;;;;;4839021;29;45344;-94
2021/09/18 10:38:48;;;;;;;;;9.75;9.00;;;;;;;;4843038;29;48331;-94
2021/09/18 10:41:24;;;;;;;;;8.00;7.00;;;;;;;;4840070;29;48860;-95
2021/09/18 10:44:09;;;;;;;;;8.75;6.75;;;;;;;;4855266;29;45773;-94
2021/09/18 10:46:43;;;;;;;;;10.75;8.00;;;;;;;;5471760;23;46204;-79
2021/09/18 10:49:26;;;;;;;;;6.75;6.25;;;;;;;;4841296;29;47313;-79
2021/09/18 10:51:54;;;;;;;;;5.50;5.50;;;;;;;;4838066;29;45701;-82
2021/09/18 10:54:19;;;;;;;;;7.50;6.25;;;;;;;;4824597;29;46061;-82
2021/09/18 10:56:58;;;;;;;;;7.50;7.50;;;;;;;;4833790;29;47015;-79
2021/09/18 10:59:45;;;;;;;;;8.50;8.00;;;;;;;;5427239;23;47107;-80
2021/09/18 11:02:28;;;;;;;;;9.25;9.25;;;;;;;;4831211;29;45764;-79
2021/09/18 11:04:54;;;;;;;;;9.50;8.00;;;;;;;;4834857;29;46879;-79
2021/09/18 11:09:54;;;;;;;;;9.75;7.00;;;;;;;;4994518;23;46282;-84
2021/09/18 11:12:19;;;;;;;;;5.75;5.75;;;;;;;;4808255;29;45484;-81
2021/09/18 11:14:59;;;;;;;;;7.00;7.00;;;;;;;;4805394;29;46278;-85
2021/09/18 11:22:39;;;;;;;;;7.50;6.00;;;;;;;;5396447;23;45996;-83
2021/09/18 11:25:24;;;;;;;;;5.00;5.00;;;;;;;;4825784;29;46093;-77
2021/09/18 11:28:05;;;;;;;;;6.00;6.00;;;;;;;;4823537;29;46200;-82
2021/09/18 11:30:41;;;;;;;;;9.50;7.75;;;;;;;;4835606;29;46107;-80
2021/09/18 11:33:09;;;;;;;;;6.25;5.50;;;;;;;;4822852;29;47948;-80
2021/09/18 11:35:35;;;;;;;;;7.25;6.00;;;;;;;;4832983;29;45958;-78
2021/09/18 11:38:01;;;;;;;;;8.00;6.75;;;;;;;;4839290;29;45633;-81
2021/09/18 11:40:27;;;;;;;;;6.00;6.00;;;;;;;;4838736;29;47081;-80
2021/09/18 11:42:55;;;;;;;;;7.75;6.00;;;;;;;;4836096;29;46380;-82
2021/09/18 11:45:23;;;;;;;;;8.50;7.00;;;;;;;;4819672;29;45921;-82
2021/09/18 11:47:50;;;;;;;;;8.00;5.75;;;;;;;;4830526;29;45786;-78
2021/09/18 11:50:35;;;;;;;;;7.00;7.00;;;;;;;;4833810;29;46413;-80
2021/09/18 11:53:02;;;;;;;;;7.00;5.75;;;;;;;;4817243;29;46068;-79
2021/09/18 11:55:33;;;;;;;;;8.00;5.50;;;;;;;;4837045;29;45841;-80
2021/09/18 11:57:59;;;;;;;;;6.00;6.00;;;;;;;;4833459;29;46232;-84
2021/09/18 12:00:25;;;;;;;;;4.25;4.25;;;;;;;;4832627;29;45565;-81
2021/09/18 12:02:54;;;;;;;;;6.25;6.25;;;;;;;;4832665;29;46227;-79
2021/09/18 12:05:22;;;;;;;;;5.00;4.50;;;;;;;;4834383;29;45891;-82
2021/09/18 12:07:48;;;;;;;;;6.75;6.75;;;;;;;;4833125;29;45528;-81
2021/09/18 12:10:15;;;;;;;;;6.50;6.00;;;;;;;;4838191;29;46648;-80
2021/09/18 12:12:40;;;;;;;;;8.50;7.00;;;;;;;;4816187;29;45632;-83
2021/09/18 12:15:06;;;;;;;;;6.00;5.50;;;;;;;;4837504;29;45578;-87
2021/09/18 12:17:36;;;;;;;;;4.75;4.75;;;;;;;;4818597;29;46067;-86
2021/09/18 12:20:02;;;;;;;;;6.50;5.50;;;;;;;;4834489;29;46925;-81
2021/09/18 12:22:30;;;;;;;;;5.00;5.00;;;;;;;;4833941;29;45821;-82
2021/09/18 12:24:55;;;;;;;;;7.25;6.25;;;;;;;;4821093;29;45638;-88
2021/09/18 12:27:21;;;;;;;;;6.25;5.00;;;;;;;;4834232;29;45597;-85
2021/09/18 12:30:01;;;;;;;;;6.25;5.50;;;;;;;;4828291;29;48076;-88
2021/09/18 12:32:27;;;;;;;;;7.50;5.75;;;;;;;;4820588;29;46212;-87
2021/09/18 12:35:02;;;;;;;;;4.00;3.00;;;;;;;;4840627;29;45765;-86
2021/09/18 12:37:34;;;;;;;;;5.25;5.00;;;;;;;;5102819;23;45571;-86
2021/09/18 12:40:14;;;;;;;;;5.50;5.50;;;;;;;;4831445;29;46805;-80
2021/09/18 12:42:39;;;;;;;;;3.50;3.50;;;;;;;;4820620;29;46286;-87
2021/09/18 12:45:21;;;;;;;;;4.75;4.75;;;;;;;;4824340;29;49054;-89
2021/09/18 12:47:49;;;;;;;;;6.25;5.00;;;;;;;;4811078;29;46308;-87
2021/09/18 12:50:17;;;;;;;;;6.00;4.00;;;;;;;;4915389;23;46989;-93
2021/09/18 12:53:17;;;;;;;;;;;;;;;;;;;;;
2021/09/18 12:56:02;;;;;;;;;4.00;4.00;;;;;;;;4798989;29;68132;-92
2021/09/18 12:58:28;;;;;;;;;5.00;4.00;;;;;;;;4829072;29;45613;-93
2021/09/18 13:00:57;;;;;;;;;4.00;2.75;;;;;;;;4826343;29;47343;-91
2021/09/18 13:03:23;;;;;;;;;4.75;4.75;;;;;;;;4850560;29;45769;-92
2021/09/18 13:05:54;;;;;;;;;4.00;3.25;;;;;;;;4844750;29;45645;-91
2021/09/18 13:08:20;;;;;;;;;3.25;3.25;;;;;;;;4863210;28;45579;-93
2021/09/18 13:15:58;;;;;;;;;5.00;5.00;;;;;;;;4838885;29;45529;-93
2021/09/18 13:20:59;;;;;;;;;3.25;3.25;;;;;;;;5025665;23;45695;-85
2021/09/18 13:23:24;;;;;;;;;4.50;3.00;;;;;;;;4807181;29;45527;-82
2021/09/18 13:25:50;;;;;;;;;4.00;4.00;;;;;;;;4808868;29;46559;-78
2021/09/18 13:28:15;;;;;;;;;2.75;2.75;;;;;;;;4821935;29;45923;-81
2021/09/18 13:30:40;;;;;;;;;5.00;5.00;;;;;;;;4820048;29;45802;-86
2021/09/18 13:33:05;;;;;;;;;4.00;3.75;;;;;;;;4817801;29;45646;-83
2021/09/18 13:35:31;;;;;;;;;4.25;3.75;;;;;;;;4808437;29;45887;-82
2021/09/18 13:37:56;;;;;;;;;5.00;5.00;;;;;;;;4823464;29;45779;-84
2021/09/18 13:40:21;;;;;;;;;5.00;3.50;;;;;;;;4811670;29;46146;-83
2021/09/18 13:43:20;;;;;;;;;36.50;31.25;;;;;;;;4829966;29;45722;-85
2021/09/18 13:45:45;;;;;;;;;5.25;4.00;;;;;;;;4824738;29;45423;-85
2021/09/18 13:48:22;;;;;;;;;3.75;3.75;;;;;;;;4826209;29;45543;-87
2021/09/18 13:50:48;;;;;;;;;6.00;4.00;;;;;;;;4828083;29;51187;-82
2021/09/18 13:53:14;;;;;;;;;5.25;3.00;;;;;;;;4826367;29;46058;-85
2021/09/18 13:55:39;;;;;;;;;4.25;3.00;;;;;;;;4812266;29;46446;-89
2021/09/18 13:58:04;;;;;;;;;4.50;4.50;;;;;;;;4825872;29;46651;-84
2021/09/18 14:00:29;;;;;;;;;2.75;2.75;;;;;;;;4829315;29;46452;-82
2021/09/18 14:13:18;;;;;;;;;4.00;4.00;;;;;;;;4963471;23;46902;-83
2021/09/18 14:15:43;;;;;;;;;6.25;5.25;;;;;;;;4842916;29;46116;-80
2021/09/18 14:18:09;;;;;;;;;3.00;3.00;;;;;;;;4844927;29;46424;-80
2021/09/18 14:20:35;;;;;;;;;6.00;4.25;;;;;;;;4845217;29;46798;-80
2021/09/18 14:23:01;;;;;;;;;5.00;3.00;;;;;;;;4842775;29;45614;-89
2021/09/18 14:25:26;;;;;;;;;5.00;3.25;;;;;;;;4828055;29;46507;-81
2021/09/18 14:27:51;;;;;;;;;4.75;4.00;;;;;;;;4842583;29;46531;-78
2021/09/18 14:30:17;;;;;;;;;4.67;4.00;;;;;;;;4841709;29;46093;-88
2021/09/18 14:32:42;;;;;;;;;5.75;5.00;;;;;;;;4838955;29;53141;-79
2021/09/18 14:35:08;;;;;;;;;5.00;5.00;;;;;;;;4842869;29;45815;-84
2021/09/18 14:37:33;;;;;;;;;5.75;5.75;;;;;;;;4853249;29;46008;-82
2021/09/18 14:39:58;;;;;;;;;7.25;6.00;;;;;;;;4845939;29;46646;-83
2021/09/18 14:44:58;;;;;;;;;6.25;3.50;;;;;;;;4976158;23;45483;-85
2021/09/18 14:47:24;;;;;;;;;3.75;3.75;;;;;;;;4839466;29;45709;-86
2021/09/18 14:49:51;;;;;;;;;3.00;3.00;;;;;;;;4843258;29;46133;-84
2021/09/18 14:52:19;;;;;;;;;7.00;5.50;;;;;;;;4831925;29;45898;-81
2021/09/18 14:54:47;;;;;;;;;5.50;4.75;;;;;;;;4825384;29;45973;-85
2021/09/18 14:57:12;;;;;;;;;6.00;5.00;;;;;;;;4841994;29;45614;-82
2021/09/18 14:59:37;;;;;;;;;5.25;5.25;;;;;;;;4838873;29;46788;-84